FMEP Airport Information

Runway Information
Runway 15 Length 4965 ft width 98 ft
Elevation 59 ft Threshold 0 ft Heading 129
Runway 33 Length 4965 ft Width 98 ft
Elevation 41 ft Threshold 0 ft Heading 309
Airport Frequencies
Type INFO Name PIERREFOND Frequency 122.4 MHZ
Airport Navaids
Type VOR-DME Name St Pierre Pierrefonds Frequency 115900 KHZ
Type NDB Name Pierrefonds/Etang Frequency 352 KHZ
Airport Weather Information & NOTAM
ADDS - METARS form results

(1241 UTC 19 June 2019)
Data provider http://aviationweather.gov/metar/data/
 
METAR text: FMEP 191230Z AUTO 13022KT 9999 FEW039 23/19 Q1018 TEMPO 14025G35KT
Conditions at: FMEP (ST. PIERRE/FONDS, FR) observed 1230 UTC 19 June 2019
Temperature: 23.0°C (73°F)
Dewpoint: 19.0°C (66°F) [RH = 78%]
Pressure (altimeter): 30.06 inches Hg (1018.0 mb)
Winds: from the SE (130 degrees) at 25 MPH (22 knots; 11.3 m/s)
Visibility: 6 or more miles (10+ km)
Ceiling: at least 12,000 feet AGL
Clouds: few clouds at 3900 feet AGL
Weather: no significant weather observed at this time

METAR text: FMEP 191200Z AUTO 13017KT 9999 FEW039 BKN080 24/19 Q1018 TEMPO 14025G35KT
Conditions at: FMEP (ST. PIERRE/FONDS, FR) observed 1200 UTC 19 June 2019
Temperature: 24.0°C (75°F)
Dewpoint: 19.0°C (66°F) [RH = 74%]
Pressure (altimeter): 30.06 inches Hg (1018.0 mb)
Winds: from the SE (130 degrees) at 20 MPH (17 knots; 8.7 m/s)
Visibility: 6 or more miles (10+ km)
Ceiling: 8000 feet AGL
Clouds: few clouds at 3900 feet AGL
broken clouds at 8000 feet AGL
Weather: no significant weather observed at this time

Forecast for: FMEP (ST. PIERRE/FONDS, FR)
Text: TAF FMEP 191100Z 1912/1921 14015KT 9999 FEW020 SCT060
Forecast period: 1200 to 2100 UTC 19 June 2019
Forecast type: FROM: standard forecast or significant change
Winds: from the SE (140 degrees) at 17 MPH (15 knots; 7.7 m/s)
Visibility: 6 or more miles 10+ km)
Ceiling: at least 12,000 feet AGL
Clouds: few clouds at 2000 feet AGL
scattered clouds at 6000 feet AGL
Weather: no significant weather forecast for this period
Text: TEMPO 1912/1918 14025G35KT
Forecast period: 1200 to 1800 UTC 19 June 2019
Forecast type: TEMPORARY: The following changes expected for less than half the time period
Winds: from the SE (140 degrees) at 29 MPH (25 knots; 12.9 m/s)
gusting to 40 MPH (35 knots; 18.0 m/s)
Visibility: missing
Ceiling: unknown
Clouds: missing
Weather: no significant weather forecast for this period